sensor_id;sensor_type;location;lat;lon;timestamp;pressure;altitude;pressure_sealevel;temperature;humidity
75006;BME280;63553;51.814;4.600;2024-03-07T00:01:44;102783.25;;;5.38;92.74
75006;BME280;63553;51.814;4.600;2024-03-07T00:04:10;102792.72;;;5.53;92.43
75006;BME280;63553;51.814;4.600;2024-03-07T00:06:35;102786.97;;;5.43;91.71
75006;BME280;63553;51.814;4.600;2024-03-07T00:09:01;102794.53;;;5.36;92.76
75006;BME280;63553;51.814;4.600;2024-03-07T00:11:27;102801.97;;;5.36;92.87
75006;BME280;63553;51.814;4.600;2024-03-07T00:13:53;102789.72;;;5.32;92.46
75006;BME280;63553;51.814;4.600;2024-03-07T00:16:19;102792.38;;;5.27;93.30
75006;BME280;63553;51.814;4.600;2024-03-07T00:18:45;102798.13;;;5.37;93.21
75006;BME280;63553;51.814;4.600;2024-03-07T00:21:11;102792.63;;;5.48;92.70
75006;BME280;63553;51.814;4.600;2024-03-07T00:23:36;102796.44;;;5.36;92.68
75006;BME280;63553;51.814;4.600;2024-03-07T00:26:02;102788.75;;;5.38;92.91
75006;BME280;63553;51.814;4.600;2024-03-07T00:28:28;102796.06;;;5.44;92.57
75006;BME280;63553;51.814;4.600;2024-03-07T00:30:58;102800.63;;;5.38;92.90
75006;BME280;63553;51.814;4.600;2024-03-07T00:33:23;102788.91;;;5.31;92.78
75006;BME280;63553;51.814;4.600;2024-03-07T00:35:49;102797.28;;;5.36;93.11
75006;BME280;63553;51.814;4.600;2024-03-07T00:38:14;102783.13;;;5.21;93.08
75006;BME280;63553;51.814;4.600;2024-03-07T00:40:40;102791.66;;;5.31;93.47
75006;BME280;63553;51.814;4.600;2024-03-07T00:43:05;102791.63;;;5.20;94.14
75006;BME280;63553;51.814;4.600;2024-03-07T00:45:31;102782.19;;;5.16;93.86
75006;BME280;63553;51.814;4.600;2024-03-07T00:47:57;102785.06;;;5.21;93.75
75006;BME280;63553;51.814;4.600;2024-03-07T00:50:24;102778.47;;;5.22;93.68
75006;BME280;63553;51.814;4.600;2024-03-07T00:52:49;102783.97;;;5.22;93.76
75006;BME280;63553;51.814;4.600;2024-03-07T00:55:15;102780.97;;;5.35;93.69
75006;BME280;63553;51.814;4.600;2024-03-07T00:57:40;102774.13;;;5.26;93.16
75006;BME280;63553;51.814;4.600;2024-03-07T01:00:06;102775.81;;;5.15;93.89
75006;BME280;63553;51.814;4.600;2024-03-07T01:02:42;102782.41;;;5.14;93.44
75006;BME280;63553;51.814;4.600;2024-03-07T01:05:09;102780.94;;;5.00;94.69
75006;BME280;63553;51.814;4.600;2024-03-07T01:07:42;102780.13;;;4.99;94.61
75006;BME280;63553;51.814;4.600;2024-03-07T01:10:08;102776.88;;;5.02;94.84
75006;BME280;63553;51.814;4.600;2024-03-07T01:12:34;102772.94;;;4.98;94.77
75006;BME280;63553;51.814;4.600;2024-03-07T01:15:00;102774.38;;;5.13;94.38
75006;BME280;63553;51.814;4.600;2024-03-07T01:17:26;102770.41;;;4.97;94.27
75006;BME280;63553;51.814;4.600;2024-03-07T01:19:52;102783.34;;;4.96;94.79
75006;BME280;63553;51.814;4.600;2024-03-07T01:22:17;102772.66;;;4.88;95.55
75006;BME280;63553;51.814;4.600;2024-03-07T01:24:42;102773.03;;;4.92;95.69
75006;BME280;63553;51.814;4.600;2024-03-07T01:27:08;102776.97;;;4.96;95.09
75006;BME280;63553;51.814;4.600;2024-03-07T01:29:34;102775.31;;;4.95;95.49
75006;BME280;63553;51.814;4.600;2024-03-07T01:32:00;102768.22;;;4.87;95.26
75006;BME280;63553;51.814;4.600;2024-03-07T01:34:25;102761.75;;;4.93;95.23
75006;BME280;63553;51.814;4.600;2024-03-07T01:36:50;102772.56;;;4.83;95.59
75006;BME280;63553;51.814;4.600;2024-03-07T01:39:16;102762.84;;;4.81;95.81
75006;BME280;63553;51.814;4.600;2024-03-07T01:41:42;102757.09;;;4.82;95.65
75006;BME280;63553;51.814;4.600;2024-03-07T01:44:07;102760.22;;;4.86;95.87
75006;BME280;63553;51.814;4.600;2024-03-07T01:46:32;102760.66;;;4.71;96.02
75006;BME280;63553;51.814;4.600;2024-03-07T01:48:58;102759.56;;;4.72;96.41
75006;BME280;63553;51.814;4.600;2024-03-07T01:51:24;102763.41;;;4.71;97.19
75006;BME280;63553;51.814;4.600;2024-03-07T01:53:51;102762.09;;;4.62;96.61
75006;BME280;63553;51.814;4.600;2024-03-07T01:56:18;102763.25;;;4.55;98.01
75006;BME280;63553;51.814;4.600;2024-03-07T01:58:49;102759.41;;;4.56;97.98
75006;BME280;63553;51.814;4.600;2024-03-07T02:01:14;102741.22;;;4.55;97.73
75006;BME280;63553;51.814;4.600;2024-03-07T02:03:40;102744.97;;;4.60;96.97
75006;BME280;63553;51.814;4.600;2024-03-07T02:06:07;102742.06;;;4.55;97.34
75006;BME280;63553;51.814;4.600;2024-03-07T02:08:32;102737.66;;;4.66;96.85
75006;BME280;63553;51.814;4.600;2024-03-07T02:10:58;102735.66;;;4.43;97.71
75006;BME280;63553;51.814;4.600;2024-03-07T02:13:23;102740.72;;;4.46;98.28
75006;BME280;63553;51.814;4.600;2024-03-07T02:15:49;102736.50;;;4.43;98.09
75006;BME280;63553;51.814;4.600;2024-03-07T02:18:14;102734.03;;;4.54;97.40
75006;BME280;63553;51.814;4.600;2024-03-07T02:20:46;102732.22;;;4.47;97.74
75006;BME280;63553;51.814;4.600;2024-03-07T02:23:12;102729.69;;;4.46;97.46
75006;BME280;63553;51.814;4.600;2024-03-07T02:25:38;102735.25;;;4.28;98.52
75006;BME280;63553;51.814;4.600;2024-03-07T02:28:04;102734.22;;;4.40;98.68
75006;BME280;63553;51.814;4.600;2024-03-07T02:30:30;102730.78;;;4.45;97.46
75006;BME280;63553;51.814;4.600;2024-03-07T02:32:57;102729.97;;;4.56;97.81
75006;BME280;63553;51.814;4.600;2024-03-07T02:35:24;102724.91;;;4.41;97.38
75006;BME280;63553;51.814;4.600;2024-03-07T02:37:50;102717.31;;;4.25;98.38
75006;BME280;63553;51.814;4.600;2024-03-07T02:40:15;102724.84;;;4.18;98.55
75006;BME280;63553;51.814;4.600;2024-03-07T02:42:41;102720.41;;;4.17;99.34
75006;BME280;63553;51.814;4.600;2024-03-07T02:45:07;102716.88;;;4.10;99.14
75006;BME280;63553;51.814;4.600;2024-03-07T02:47:33;102716.91;;;4.22;99.05
75006;BME280;63553;51.814;4.600;2024-03-07T02:49:58;102712.06;;;4.35;98.94
75006;BME280;63553;51.814;4.600;2024-03-07T02:52:24;102710.03;;;4.01;99.41
75006;BME280;63553;51.814;4.600;2024-03-07T02:54:49;102713.91;;;4.12;100.00
75006;BME280;63553;51.814;4.600;2024-03-07T02:57:14;102715.44;;;4.08;100.00
75006;BME280;63553;51.814;4.600;2024-03-07T02:59:41;102711.59;;;3.97;100.00
75006;BME280;63553;51.814;4.600;2024-03-07T03:02:07;102709.41;;;4.29;100.00
75006;BME280;63553;51.814;4.600;2024-03-07T03:04:32;102706.59;;;4.06;100.00
75006;BME280;63553;51.814;4.600;2024-03-07T03:06:58;102697.94;;;4.02;100.00
75006;BME280;63553;51.814;4.600;2024-03-07T03:09:23;102702.47;;;4.26;100.00
75006;BME280;63553;51.814;4.600;2024-03-07T03:11:49;102704.47;;;4.19;100.00
75006;BME280;63553;51.814;4.600;2024-03-07T03:14:14;102701.63;;;3.96;100.00
75006;BME280;63553;51.814;4.600;2024-03-07T03:16:43;102704.44;;;4.08;100.00
75006;BME280;63553;51.814;4.600;2024-03-07T03:19:11;102695.78;;;4.34;100.00
75006;BME280;63553;51.814;4.600;2024-03-07T03:21:37;102687.72;;;4.21;99.87
75006;BME280;63553;51.814;4.600;2024-03-07T03:24:03;102693.50;;;4.31;100.00
75006;BME280;63553;51.814;4.600;2024-03-07T03:26:29;102688.81;;;4.20;100.00
75006;BME280;63553;51.814;4.600;2024-03-07T03:28:56;102686.81;;;3.97;100.00
75006;BME280;63553;51.814;4.600;2024-03-07T03:31:22;102692.22;;;4.04;100.00
75006;BME280;63553;51.814;4.600;2024-03-07T03:33:47;102680.00;;;4.00;100.00
75006;BME280;63553;51.814;4.600;2024-03-07T03:36:13;102690.84;;;3.83;100.00
75006;BME280;63553;51.814;4.600;2024-03-07T03:38:39;102688.84;;;4.02;100.00
75006;BME280;63553;51.814;4.600;2024-03-07T03:41:06;102687.19;;;4.01;100.00
75006;BME280;63553;51.814;4.600;2024-03-07T03:43:31;102682.63;;;3.95;100.00
75006;BME280;63553;51.814;4.600;2024-03-07T03:45:57;102675.59;;;3.80;100.00
75006;BME280;63553;51.814;4.600;2024-03-07T03:48:22;102672.03;;;3.80;100.00
75006;BME280;63553;51.814;4.600;2024-03-07T03:50:47;102671.31;;;3.84;100.00
75006;BME280;63553;51.814;4.600;2024-03-07T03:53:13;102679.19;;;3.81;100.00
75006;BME280;63553;51.814;4.600;2024-03-07T03:55:38;102665.44;;;3.81;100.00
75006;BME280;63553;51.814;4.600;2024-03-07T03:58:04;102675.25;;;3.77;100.00
75006;BME280;63553;51.814;4.600;2024-03-07T04:00:31;102668.91;;;3.76;100.00
75006;BME280;63553;51.814;4.600;2024-03-07T04:02:56;102662.22;;;3.84;100.00
75006;BME280;63553;51.814;4.600;2024-03-07T04:05:21;102668.06;;;3.76;100.00
75006;BME280;63553;51.814;4.600;2024-03-07T04:07:47;102662.22;;;3.84;100.00
75006;BME280;63553;51.814;4.600;2024-03-07T04:10:14;102664.34;;;3.70;100.00
75006;BME280;63553;51.814;4.600;2024-03-07T04:12:41;102668.69;;;3.89;100.00
75006;BME280;63553;51.814;4.600;2024-03-07T04:15:08;102665.47;;;3.92;100.00
75006;BME280;63553;51.814;4.600;2024-03-07T04:17:34;102659.22;;;3.74;100.00
75006;BME280;63553;51.814;4.600;2024-03-07T04:20:00;102659.69;;;4.01;100.00
75006;BME280;63553;51.814;4.600;2024-03-07T04:22:26;102656.53;;;3.67;100.00
75006;BME280;63553;51.814;4.600;2024-03-07T04:24:52;102662.97;;;3.91;100.00
75006;BME280;63553;51.814;4.600;2024-03-07T04:27:20;102657.75;;;3.71;100.00
75006;BME280;63553;51.814;4.600;2024-03-07T04:29:46;102665.25;;;3.64;100.00
75006;BME280;63553;51.814;4.600;2024-03-07T04:32:13;102665.31;;;3.76;100.00
75006;BME280;63553;51.814;4.600;2024-03-07T04:34:39;102661.88;;;3.62;100.00
75006;BME280;63553;51.814;4.600;2024-03-07T04:37:04;102654.47;;;3.63;100.00
75006;BME280;63553;51.814;4.600;2024-03-07T04:39:30;102652.94;;;3.67;100.00
75006;BME280;63553;51.814;4.600;2024-03-07T04:42:01;102651.59;;;3.58;100.00
75006;BME280;63553;51.814;4.600;2024-03-07T04:44:28;102653.38;;;3.82;100.00
75006;BME280;63553;51.814;4.600;2024-03-07T04:46:53;102644.78;;;3.60;100.00
75006;BME280;63553;51.814;4.600;2024-03-07T04:49:24;102648.72;;;3.82;100.00
75006;BME280;63553;51.814;4.600;2024-03-07T04:51:57;102644.56;;;3.62;100.00
75006;BME280;63553;51.814;4.600;2024-03-07T04:54:23;102647.75;;;3.77;100.00
75006;BME280;63553;51.814;4.600;2024-03-07T04:56:50;102648.28;;;3.67;100.00
75006;BME280;63553;51.814;4.600;2024-03-07T04:59:17;102645.38;;;3.62;100.00
75006;BME280;63553;51.814;4.600;2024-03-07T05:01:43;102639.38;;;5.69;100.00
75006;BME280;63553;51.814;4.600;2024-03-07T05:04:09;102633.59;;;7.59;100.00
75006;BME280;63553;51.814;4.600;2024-03-07T05:06:37;102630.09;;;8.85;100.00
75006;BME280;63553;51.814;4.600;2024-03-07T05:09:03;102635.53;;;9.74;92.54
75006;BME280;63553;51.814;4.600;2024-03-07T05:11:32;102638.75;;;10.38;86.60
75006;BME280;63553;51.814;4.600;2024-03-07T05:13:57;102630.97;;;10.81;81.92
75006;BME280;63553;51.814;4.600;2024-03-07T05:16:32;102625.00;;;11.23;78.87
75006;BME280;63553;51.814;4.600;2024-03-07T05:18:58;102641.03;;;11.56;77.08
75006;BME280;63553;51.814;4.600;2024-03-07T05:21:25;102628.13;;;11.80;75.26
75006;BME280;63553;51.814;4.600;2024-03-07T05:24:04;102631.38;;;12.02;74.73
75006;BME280;63553;51.814;4.600;2024-03-07T05:26:30;102629.28;;;12.18;73.26
75006;BME280;63553;51.814;4.600;2024-03-07T05:29:05;102635.91;;;12.32;72.47
75006;BME280;63553;51.814;4.600;2024-03-07T05:31:39;102642.50;;;12.41;71.61
75006;BME280;63553;51.814;4.600;2024-03-07T05:34:12;102640.22;;;12.48;71.59
75006;BME280;63553;51.814;4.600;2024-03-07T05:36:38;102641.25;;;12.57;71.09
75006;BME280;63553;51.814;4.600;2024-03-07T05:39:10;102640.63;;;12.65;70.44
75006;BME280;63553;51.814;4.600;2024-03-07T05:41:40;102624.97;;;12.69;70.19
75006;BME280;63553;51.814;4.600;2024-03-07T05:44:06;102632.75;;;12.72;70.42
75006;BME280;63553;51.814;4.600;2024-03-07T05:46:38;102627.72;;;12.74;69.92
75006;BME280;63553;51.814;4.600;2024-03-07T05:49:10;102628.78;;;12.78;69.58
75006;BME280;63553;51.814;4.600;2024-03-07T05:51:36;102633.47;;;12.88;69.44
75006;BME280;63553;51.814;4.600;2024-03-07T05:54:02;102636.44;;;12.97;69.34
75006;BME280;63553;51.814;4.600;2024-03-07T05:56:32;102624.63;;;13.05;69.22
75006;BME280;63553;51.814;4.600;2024-03-07T05:59:01;102632.16;;;13.09;70.13
75006;BME280;63553;51.814;4.600;2024-03-07T06:01:29;102634.56;;;13.16;70.77
75006;BME280;63553;51.814;4.600;2024-03-07T06:03:55;102626.75;;;13.18;69.80
75006;BME280;63553;51.814;4.600;2024-03-07T06:06:21;102627.34;;;13.15;68.26
75006;BME280;63553;51.814;4.600;2024-03-07T06:08:46;102622.34;;;13.12;67.69
75006;BME280;63553;51.814;4.600;2024-03-07T06:11:11;102632.09;;;13.14;67.60
75006;BME280;63553;51.814;4.600;2024-03-07T06:13:38;102631.25;;;13.14;67.66
75006;BME280;63553;51.814;4.600;2024-03-07T06:16:04;102635.72;;;13.15;67.50
75006;BME280;63553;51.814;4.600;2024-03-07T06:18:32;102636.25;;;13.17;67.28
75006;BME280;63553;51.814;4.600;2024-03-07T06:20:58;102629.53;;;13.18;66.71
75006;BME280;63553;51.814;4.600;2024-03-07T06:23:23;102634.81;;;13.19;67.52
75006;BME280;63553;51.814;4.600;2024-03-07T06:25:49;102634.81;;;13.19;68.39
75006;BME280;63553;51.814;4.600;2024-03-07T06:28:19;102637.94;;;13.18;68.46
75006;BME280;63553;51.814;4.600;2024-03-07T06:30:45;102625.91;;;13.17;67.88
75006;BME280;63553;51.814;4.600;2024-03-07T06:33:12;102635.66;;;13.20;68.24
75006;BME280;63553;51.814;4.600;2024-03-07T06:35:38;102631.75;;;13.21;67.92
75006;BME280;63553;51.814;4.600;2024-03-07T06:38:08;102622.81;;;13.19;68.00
75006;BME280;63553;51.814;4.600;2024-03-07T06:40:34;102624.47;;;13.20;68.10
75006;BME280;63553;51.814;4.600;2024-03-07T06:43:00;102632.78;;;13.25;67.85
75006;BME280;63553;51.814;4.600;2024-03-07T06:45:25;102622.97;;;13.27;67.54
75006;BME280;63553;51.814;4.600;2024-03-07T06:47:51;102623.53;;;13.29;67.19
75006;BME280;63553;51.814;4.600;2024-03-07T06:50:19;102619.59;;;13.30;66.62
75006;BME280;63553;51.814;4.600;2024-03-07T06:52:47;102627.97;;;13.30;66.73
75006;BME280;63553;51.814;4.600;2024-03-07T06:55:17;102623.47;;;13.34;66.76
75006;BME280;63553;51.814;4.600;2024-03-07T06:57:45;102627.34;;;13.39;66.51
75006;BME280;63553;51.814;4.600;2024-03-07T07:00:12;102625.06;;;13.41;66.70
75006;BME280;63553;51.814;4.600;2024-03-07T07:02:40;102625.00;;;13.46;66.44
75006;BME280;63553;51.814;4.600;2024-03-07T07:05:07;102621.63;;;13.49;66.55
75006;BME280;63553;51.814;4.600;2024-03-07T07:07:39;102626.31;;;13.53;66.73
75006;BME280;63553;51.814;4.600;2024-03-07T07:10:07;102622.84;;;13.61;66.67
75006;BME280;63553;51.814;4.600;2024-03-07T07:12:35;102626.66;;;13.70;65.82
75006;BME280;63553;51.814;4.600;2024-03-07T07:15:01;102623.50;;;13.77;65.16
75006;BME280;63553;51.814;4.600;2024-03-07T07:17:26;102627.06;;;13.82;64.92
75006;BME280;63553;51.814;4.600;2024-03-07T07:19:54;102628.03;;;13.91;64.96
75006;BME280;63553;51.814;4.600;2024-03-07T07:22:21;102623.34;;;14.06;64.30
75006;BME280;63553;51.814;4.600;2024-03-07T07:24:46;102625.00;;;14.25;63.17
75006;BME280;63553;51.814;4.600;2024-03-07T07:27:11;102626.91;;;14.49;62.82
75006;BME280;63553;51.814;4.600;2024-03-07T07:29:37;102629.25;;;14.74;62.00
75006;BME280;63553;51.814;4.600;2024-03-07T07:32:02;102619.81;;;15.02;61.42
75006;BME280;63553;51.814;4.600;2024-03-07T07:34:28;102624.06;;;15.27;60.46
75006;BME280;63553;51.814;4.600;2024-03-07T07:36:53;102614.13;;;15.48;59.41
75006;BME280;63553;51.814;4.600;2024-03-07T07:39:18;102621.19;;;15.59;58.33
75006;BME280;63553;51.814;4.600;2024-03-07T07:41:44;102615.56;;;15.59;58.24
75006;BME280;63553;51.814;4.600;2024-03-07T07:44:09;102613.81;;;15.63;58.65
75006;BME280;63553;51.814;4.600;2024-03-07T07:46:35;102615.66;;;15.81;57.71
75006;BME280;63553;51.814;4.600;2024-03-07T07:49:03;102606.63;;;16.06;57.31
75006;BME280;63553;51.814;4.600;2024-03-07T07:51:28;102611.03;;;16.35;56.31
75006;BME280;63553;51.814;4.600;2024-03-07T07:53:53;102609.75;;;16.63;55.54
75006;BME280;63553;51.814;4.600;2024-03-07T07:56:22;102620.84;;;16.90;53.81
75006;BME280;63553;51.814;4.600;2024-03-07T07:58:47;102609.41;;;17.17;53.43
75006;BME280;63553;51.814;4.600;2024-03-07T08:01:14;102610.03;;;17.45;52.48
75006;BME280;63553;51.814;4.600;2024-03-07T08:03:42;102598.88;;;17.71;51.39
75006;BME280;63553;51.814;4.600;2024-03-07T08:06:09;102599.91;;;17.92;50.97
75006;BME280;63553;51.814;4.600;2024-03-07T08:08:34;102600.06;;;18.21;49.96
75006;BME280;63553;51.814;4.600;2024-03-07T08:11:00;102600.72;;;18.44;49.75
75006;BME280;63553;51.814;4.600;2024-03-07T08:13:26;102592.44;;;18.65;48.93
75006;BME280;63553;51.814;4.600;2024-03-07T08:15:51;102599.53;;;18.88;48.28
75006;BME280;63553;51.814;4.600;2024-03-07T08:18:19;102598.78;;;19.08;47.87
75006;BME280;63553;51.814;4.600;2024-03-07T08:20:45;102601.22;;;19.27;46.87
75006;BME280;63553;51.814;4.600;2024-03-07T08:23:11;102593.84;;;19.43;46.59
75006;BME280;63553;51.814;4.600;2024-03-07T08:25:38;102584.94;;;19.62;46.24
75006;BME280;63553;51.814;4.600;2024-03-07T08:28:07;102585.44;;;19.84;45.81
75006;BME280;63553;51.814;4.600;2024-03-07T08:30:33;102582.84;;;20.00;45.60
75006;BME280;63553;51.814;4.600;2024-03-07T08:33:00;102580.34;;;20.19;45.14
75006;BME280;63553;51.814;4.600;2024-03-07T08:35:28;102579.28;;;20.32;44.88
75006;BME280;63553;51.814;4.600;2024-03-07T08:37:54;102585.25;;;20.52;44.61
75006;BME280;63553;51.814;4.600;2024-03-07T08:40:30;102585.69;;;20.74;43.91
75006;BME280;63553;51.814;4.600;2024-03-07T08:42:59;102588.53;;;20.86;43.28
75006;BME280;63553;51.814;4.600;2024-03-07T08:45:26;102587.63;;;21.06;43.79
75006;BME280;63553;51.814;4.600;2024-03-07T08:47:53;102582.00;;;21.19;42.95
75006;BME280;63553;51.814;4.600;2024-03-07T08:50:22;102573.91;;;21.17;42.53
75006;BME280;63553;51.814;4.600;2024-03-07T08:52:48;102577.06;;;21.28;41.97
75006;BME280;63553;51.814;4.600;2024-03-07T08:55:22;102575.78;;;21.37;41.45
75006;BME280;63553;51.814;4.600;2024-03-07T08:57:48;102575.53;;;21.42;41.47
75006;BME280;63553;51.814;4.600;2024-03-07T09:00:15;102574.59;;;21.50;40.82
75006;BME280;63553;51.814;4.600;2024-03-07T09:02:48;102573.03;;;21.53;40.97
75006;BME280;63553;51.814;4.600;2024-03-07T09:05:21;102571.88;;;21.66;40.46
75006;BME280;63553;51.814;4.600;2024-03-07T09:07:48;102568.66;;;21.80;40.56
75006;BME280;63553;51.814;4.600;2024-03-07T09:10:14;102558.88;;;21.89;40.09
75006;BME280;63553;51.814;4.600;2024-03-07T09:12:43;102560.84;;;22.01;40.29
75006;BME280;63553;51.814;4.600;2024-03-07T09:15:09;102560.50;;;22.02;39.55
75006;BME280;63553;51.814;4.600;2024-03-07T09:17:38;102558.13;;;22.04;38.71
75006;BME280;63553;51.814;4.600;2024-03-07T09:20:05;102559.53;;;22.10;38.80
75006;BME280;63553;51.814;4.600;2024-03-07T09:22:31;102558.47;;;22.15;38.82
75006;BME280;63553;51.814;4.600;2024-03-07T09:24:58;102560.56;;;22.18;38.30
75006;BME280;63553;51.814;4.600;2024-03-07T09:27:23;102561.03;;;22.20;38.36
75006;BME280;63553;51.814;4.600;2024-03-07T09:29:48;102565.59;;;22.25;37.80
75006;BME280;63553;51.814;4.600;2024-03-07T09:32:14;102554.63;;;22.23;37.81
75006;BME280;63553;51.814;4.600;2024-03-07T09:34:39;102551.09;;;22.26;38.07
75006;BME280;63553;51.814;4.600;2024-03-07T09:37:05;102548.41;;;22.18;37.96
75006;BME280;63553;51.814;4.600;2024-03-07T09:39:32;102544.03;;;22.20;37.60
75006;BME280;63553;51.814;4.600;2024-03-07T09:42:03;102536.69;;;22.19;36.78
75006;BME280;63553;51.814;4.600;2024-03-07T09:44:28;102547.91;;;22.15;36.96
75006;BME280;63553;51.814;4.600;2024-03-07T09:46:55;102535.41;;;22.17;37.35
75006;BME280;63553;51.814;4.600;2024-03-07T09:49:24;102541.66;;;22.22;36.50
75006;BME280;63553;51.814;4.600;2024-03-07T09:51:51;102538.69;;;22.19;36.58
75006;BME280;63553;51.814;4.600;2024-03-07T09:54:20;102532.59;;;22.17;36.08
75006;BME280;63553;51.814;4.600;2024-03-07T09:56:49;102545.47;;;22.14;36.94
75006;BME280;63553;51.814;4.600;2024-03-07T09:59:19;102536.03;;;22.10;36.83
75006;BME280;63553;51.814;4.600;2024-03-07T10:01:47;102534.63;;;22.04;36.05
75006;BME280;63553;51.814;4.600;2024-03-07T10:04:13;102530.97;;;22.03;36.10
75006;BME280;63553;51.814;4.600;2024-03-07T10:06:40;102532.16;;;22.02;37.17
75006;BME280;63553;51.814;4.600;2024-03-07T10:09:06;102527.38;;;21.91;37.05
75006;BME280;63553;51.814;4.600;2024-03-07T10:11:35;102525.00;;;21.81;36.50
75006;BME280;63553;51.814;4.600;2024-03-07T10:14:00;102528.53;;;21.78;36.84
75006;BME280;63553;51.814;4.600;2024-03-07T10:16:28;102524.69;;;21.70;36.12
75006;BME280;63553;51.814;4.600;2024-03-07T10:18:53;102518.91;;;21.67;40.91
75006;BME280;63553;51.814;4.600;2024-03-07T10:21:19;102520.75;;;21.75;43.72
75006;BME280;63553;51.814;4.600;2024-03-07T10:23:46;102515.78;;;21.84;54.99
75006;BME280;63553;51.814;4.600;2024-03-07T10:26:11;102512.69;;;22.01;60.05
75006;BME280;63553;51.814;4.600;2024-03-07T10:28:38;102507.50;;;22.03;64.08
75006;BME280;63553;51.814;4.600;2024-03-07T10:31:04;102509.25;;;22.07;66.11
75006;BME280;63553;51.814;4.600;2024-03-07T10:33:34;102507.50;;;22.03;69.60
75006;BME280;63553;51.814;4.600;2024-03-07T10:36:00;102500.75;;;22.07;69.63
75006;BME280;63553;51.814;4.600;2024-03-07T10:38:26;102499.19;;;22.10;70.13
75006;BME280;63553;51.814;4.600;2024-03-07T10:40:55;102498.19;;;22.02;73.57
75006;BME280;63553;51.814;4.600;2024-03-07T10:43:21;102491.00;;;21.93;74.62
75006;BME280;63553;51.814;4.600;2024-03-07T10:45:48;102501.63;;;21.84;74.77
75006;BME280;63553;51.814;4.600;2024-03-07T10:48:17;102498.09;;;21.75;77.90
75006;BME280;63553;51.814;4.600;2024-03-07T10:53:19;102498.03;;;21.59;79.60
75006;BME280;63553;51.814;4.600;2024-03-07T10:55:53;102494.03;;;21.48;79.81
75006;BME280;63553;51.814;4.600;2024-03-07T11:01:01;102490.78;;;21.34;83.26
75006;BME280;63553;51.814;4.600;2024-03-07T11:03:31;102487.81;;;21.30;87.17
75006;BME280;63553;51.814;4.600;2024-03-07T11:05:59;102515.91;;;12.08;53.49
75006;BME280;63553;51.814;4.600;2024-03-07T11:08:25;102518.53;;;11.41;55.64
75006;BME280;63553;51.814;4.600;2024-03-07T11:10:51;102511.84;;;10.88;57.47
75006;BME280;63553;51.814;4.600;2024-03-07T11:13:17;102500.84;;;10.37;56.64
75006;BME280;63553;51.814;4.600;2024-03-07T11:15:46;102503.25;;;10.79;57.25
75006;BME280;63553;51.814;4.600;2024-03-07T11:18:12;102513.38;;;10.30;55.58
75006;BME280;63553;51.814;4.600;2024-03-07T11:20:39;102491.66;;;10.47;56.99
75006;BME280;63553;51.814;4.600;2024-03-07T11:23:27;102496.91;;;10.48;56.94
75006;BME280;63553;51.814;4.600;2024-03-07T11:26:16;102498.88;;;10.43;55.88
75006;BME280;63553;51.814;4.600;2024-03-07T11:28:42;102509.44;;;9.80;55.10
75006;BME280;63553;51.814;4.600;2024-03-07T11:31:16;102488.06;;;9.71;56.20
75006;BME280;63553;51.814;4.600;2024-03-07T11:34:12;102484.44;;;10.05;54.55
75006;BME280;63553;51.814;4.600;2024-03-07T11:36:46;102483.63;;;10.30;54.91
75006;BME280;63553;51.814;4.600;2024-03-07T11:39:46;102479.16;;;9.79;55.48
75006;BME280;63553;51.814;4.600;2024-03-07T11:42:29;102472.53;;;10.15;55.71
75006;BME280;63553;51.814;4.600;2024-03-07T11:44:59;102467.50;;;10.12;55.42
75006;BME280;63553;51.814;4.600;2024-03-07T11:47:25;102457.97;;;9.32;55.50
75006;BME280;63553;51.814;4.600;2024-03-07T11:49:54;102458.03;;;9.98;55.64
75006;BME280;63553;51.814;4.600;2024-03-07T11:52:20;102455.81;;;9.75;55.92
75006;BME280;63553;51.814;4.600;2024-03-07T11:54:45;102452.22;;;9.94;56.00
75006;BME280;63553;51.814;4.600;2024-03-07T11:57:18;102449.16;;;10.16;56.29
75006;BME280;63553;51.814;4.600;2024-03-07T11:59:58;102444.97;;;9.83;55.82
75006;BME280;63553;51.814;4.600;2024-03-07T12:02:26;102439.16;;;10.00;63.48
75006;BME280;63553;51.814;4.600;2024-03-07T12:04:52;102431.91;;;11.47;65.07
75006;BME280;63553;51.814;4.600;2024-03-07T12:07:18;102419.06;;;12.43;63.04
75006;BME280;63553;51.814;4.600;2024-03-07T12:09:44;102424.66;;;13.09;61.11
75006;BME280;63553;51.814;4.600;2024-03-07T12:12:19;102408.34;;;13.53;60.41
75006;BME280;63553;51.814;4.600;2024-03-07T12:14:46;102414.41;;;13.93;58.85
75006;BME280;63553;51.814;4.600;2024-03-07T12:17:13;102398.38;;;14.25;57.46
75006;BME280;63553;51.814;4.600;2024-03-07T12:19:40;102392.44;;;14.45;57.10
75006;BME280;63553;51.814;4.600;2024-03-07T12:22:08;102382.06;;;14.60;55.99
75006;BME280;63553;51.814;4.600;2024-03-07T12:24:38;102382.56;;;14.75;56.00
75006;BME280;63553;51.814;4.600;2024-03-07T12:27:12;102391.28;;;14.87;55.81
75006;BME280;63553;51.814;4.600;2024-03-07T12:29:39;102386.88;;;14.95;55.36
75006;BME280;63553;51.814;4.600;2024-03-07T12:32:06;102376.88;;;15.02;55.41
75006;BME280;63553;51.814;4.600;2024-03-07T12:34:36;102380.09;;;15.10;54.97
75006;BME280;63553;51.814;4.600;2024-03-07T12:37:06;102374.38;;;15.15;54.68
75006;BME280;63553;51.814;4.600;2024-03-07T12:39:32;102368.66;;;15.20;53.37
75006;BME280;63553;51.814;4.600;2024-03-07T12:42:02;102371.16;;;15.21;54.32
75006;BME280;63553;51.814;4.600;2024-03-07T12:44:39;102362.94;;;15.25;53.99
75006;BME280;63553;51.814;4.600;2024-03-07T12:47:09;102358.47;;;15.24;54.06
75006;BME280;63553;51.814;4.600;2024-03-07T12:49:35;102361.16;;;15.29;54.47
75006;BME280;63553;51.814;4.600;2024-03-07T12:52:00;102357.72;;;15.32;54.20
75006;BME280;63553;51.814;4.600;2024-03-07T12:54:26;102347.66;;;15.31;54.29
75006;BME280;63553;51.814;4.600;2024-03-07T12:56:52;102351.28;;;15.31;53.90
75006;BME280;63553;51.814;4.600;2024-03-07T12:59:17;102342.56;;;15.33;52.69